sensor_id;sensor_type;location;lat;lon;timestamp;temperature;humidity
51867;DHT22;52862;52.504;13.480;2022-10-16T00:02:09;14.20;99.90
51867;DHT22;52862;52.504;13.480;2022-10-16T00:04:36;14.30;99.90
51867;DHT22;52862;52.504;13.480;2022-10-16T00:07:03;14.30;99.90
51867;DHT22;52862;52.504;13.480;2022-10-16T00:09:29;14.10;99.90
51867;DHT22;52862;52.504;13.480;2022-10-16T00:11:56;14.50;99.90
51867;DHT22;52862;52.504;13.480;2022-10-16T00:14:22;14.40;99.90
51867;DHT22;52862;52.504;13.480;2022-10-16T00:16:50;14.50;99.90
51867;DHT22;52862;52.504;13.480;2022-10-16T00:19:17;14.10;99.90
51867;DHT22;52862;52.504;13.480;2022-10-16T00:21:43;14.50;99.90
51867;DHT22;52862;52.504;13.480;2022-10-16T00:24:10;14.60;99.90
51867;DHT22;52862;52.504;13.480;2022-10-16T00:26:38;14.40;99.90
51867;DHT22;52862;52.504;13.480;2022-10-16T00:29:05;13.80;99.90
51867;DHT22;52862;52.504;13.480;2022-10-16T00:31:32;14.60;99.90
51867;DHT22;52862;52.504;13.480;2022-10-16T00:33:59;14.60;99.90
51867;DHT22;52862;52.504;13.480;2022-10-16T00:36:26;14.70;99.90
51867;DHT22;52862;52.504;13.480;2022-10-16T00:38:55;14.60;99.90
51867;DHT22;52862;52.504;13.480;2022-10-16T00:41:23;14.60;99.90
51867;DHT22;52862;52.504;13.480;2022-10-16T00:43:53;14.60;99.90
51867;DHT22;52862;52.504;13.480;2022-10-16T00:46:22;14.60;99.90
51867;DHT22;52862;52.504;13.480;2022-10-16T00:48:52;14.80;99.90
51867;DHT22;52862;52.504;13.480;2022-10-16T00:51:26;14.50;99.90
51867;DHT22;52862;52.504;13.480;2022-10-16T00:53:55;14.80;99.90
51867;DHT22;52862;52.504;13.480;2022-10-16T00:56:22;14.80;99.90
51867;DHT22;52862;52.504;13.480;2022-10-16T00:58:49;15.00;99.90
51867;DHT22;52862;52.504;13.480;2022-10-16T01:01:16;15.20;99.90
51867;DHT22;52862;52.504;13.480;2022-10-16T01:03:43;14.70;99.90
51867;DHT22;52862;52.504;13.480;2022-10-16T01:06:22;14.60;99.90
51867;DHT22;52862;52.504;13.480;2022-10-16T01:09:07;15.10;99.90
51867;DHT22;52862;52.504;13.480;2022-10-16T01:11:41;14.80;99.90
51867;DHT22;52862;52.504;13.480;2022-10-16T01:14:17;14.90;99.90
51867;DHT22;52862;52.504;13.480;2022-10-16T01:16:51;15.10;99.90
51867;DHT22;52862;52.504;13.480;2022-10-16T01:19:26;15.10;99.90
51867;DHT22;52862;52.504;13.480;2022-10-16T01:22:00;15.20;99.90
51867;DHT22;52862;52.504;13.480;2022-10-16T01:24:33;15.10;99.90
51867;DHT22;52862;52.504;13.480;2022-10-16T01:27:12;15.30;99.90
51867;DHT22;52862;52.504;13.480;2022-10-16T01:29:45;15.20;99.90
51867;DHT22;52862;52.504;13.480;2022-10-16T01:32:18;15.10;99.90
51867;DHT22;52862;52.504;13.480;2022-10-16T01:34:49;15.00;99.90
51867;DHT22;52862;52.504;13.480;2022-10-16T01:37:22;15.00;99.90
51867;DHT22;52862;52.504;13.480;2022-10-16T01:39:54;14.80;99.90
51867;DHT22;52862;52.504;13.480;2022-10-16T01:42:28;15.20;99.90
51867;DHT22;52862;52.504;13.480;2022-10-16T01:44:57;15.10;99.90
51867;DHT22;52862;52.504;13.480;2022-10-16T01:47:26;15.00;99.90
51867;DHT22;52862;52.504;13.480;2022-10-16T01:49:55;14.90;99.90
51867;DHT22;52862;52.504;13.480;2022-10-16T01:52:26;14.80;99.90
51867;DHT22;52862;52.504;13.480;2022-10-16T01:54:55;15.10;99.90
51867;DHT22;52862;52.504;13.480;2022-10-16T01:57:25;15.10;99.90
51867;DHT22;52862;52.504;13.480;2022-10-16T01:59:55;15.20;99.90
51867;DHT22;52862;52.504;13.480;2022-10-16T02:02:22;15.10;99.90
51867;DHT22;52862;52.504;13.480;2022-10-16T02:04:58;15.00;99.90
51867;DHT22;52862;52.504;13.480;2022-10-16T02:07:25;15.10;99.90
51867;DHT22;52862;52.504;13.480;2022-10-16T02:09:52;14.90;99.90
51867;DHT22;52862;52.504;13.480;2022-10-16T02:12:23;15.00;99.90
51867;DHT22;52862;52.504;13.480;2022-10-16T02:14:52;15.00;99.90
51867;DHT22;52862;52.504;13.480;2022-10-16T02:17:21;15.10;99.90
51867;DHT22;52862;52.504;13.480;2022-10-16T02:19:49;15.30;99.90
51867;DHT22;52862;52.504;13.480;2022-10-16T02:22:20;15.00;99.90
51867;DHT22;52862;52.504;13.480;2022-10-16T02:24:53;15.10;99.90
51867;DHT22;52862;52.504;13.480;2022-10-16T02:27:24;15.40;99.90
51867;DHT22;52862;52.504;13.480;2022-10-16T02:29:54;15.40;99.90
51867;DHT22;52862;52.504;13.480;2022-10-16T02:32:28;15.30;99.90
51867;DHT22;52862;52.504;13.480;2022-10-16T02:34:57;15.50;99.90
51867;DHT22;52862;52.504;13.480;2022-10-16T02:37:25;15.40;99.90
51867;DHT22;52862;52.504;13.480;2022-10-16T02:39:54;15.40;99.90
51867;DHT22;52862;52.504;13.480;2022-10-16T02:42:21;15.70;99.90
51867;DHT22;52862;52.504;13.480;2022-10-16T02:44:54;15.70;99.90
51867;DHT22;52862;52.504;13.480;2022-10-16T02:47:21;15.50;99.90
51867;DHT22;52862;52.504;13.480;2022-10-16T02:49:48;15.60;99.90
51867;DHT22;52862;52.504;13.480;2022-10-16T02:52:14;15.80;99.90
51867;DHT22;52862;52.504;13.480;2022-10-16T02:54:41;15.80;99.90
51867;DHT22;52862;52.504;13.480;2022-10-16T02:57:07;15.60;99.90
51867;DHT22;52862;52.504;13.480;2022-10-16T02:59:34;15.40;99.90
51867;DHT22;52862;52.504;13.480;2022-10-16T03:02:01;15.80;99.90
51867;DHT22;52862;52.504;13.480;2022-10-16T03:04:28;15.50;99.90
51867;DHT22;52862;52.504;13.480;2022-10-16T03:06:54;15.80;99.90
51867;DHT22;52862;52.504;13.480;2022-10-16T03:09:21;15.80;99.90
51867;DHT22;52862;52.504;13.480;2022-10-16T03:11:48;15.70;99.90
51867;DHT22;52862;52.504;13.480;2022-10-16T03:14:14;15.90;99.90
51867;DHT22;52862;52.504;13.480;2022-10-16T03:16:41;15.70;99.90
51867;DHT22;52862;52.504;13.480;2022-10-16T03:19:08;16.20;99.90
51867;DHT22;52862;52.504;13.480;2022-10-16T03:21:35;15.80;99.90
51867;DHT22;52862;52.504;13.480;2022-10-16T03:24:01;15.60;99.90
51867;DHT22;52862;52.504;13.480;2022-10-16T03:26:28;15.50;99.90
51867;DHT22;52862;52.504;13.480;2022-10-16T03:28:54;15.60;99.90
51867;DHT22;52862;52.504;13.480;2022-10-16T03:31:21;15.50;99.90
51867;DHT22;52862;52.504;13.480;2022-10-16T03:33:48;15.60;99.90
51867;DHT22;52862;52.504;13.480;2022-10-16T03:36:15;15.30;99.90
51867;DHT22;52862;52.504;13.480;2022-10-16T03:38:42;15.90;99.90
51867;DHT22;52862;52.504;13.480;2022-10-16T03:41:08;15.40;99.90
51867;DHT22;52862;52.504;13.480;2022-10-16T03:43:35;15.60;99.90
51867;DHT22;52862;52.504;13.480;2022-10-16T03:46:02;15.20;99.90
51867;DHT22;52862;52.504;13.480;2022-10-16T03:48:29;15.10;99.90
51867;DHT22;52862;52.504;13.480;2022-10-16T03:50:55;15.20;99.90
51867;DHT22;52862;52.504;13.480;2022-10-16T03:53:22;15.20;99.90
51867;DHT22;52862;52.504;13.480;2022-10-16T03:55:49;15.20;99.90
51867;DHT22;52862;52.504;13.480;2022-10-16T03:58:16;15.30;99.90
51867;DHT22;52862;52.504;13.480;2022-10-16T04:00:43;15.30;99.90
51867;DHT22;52862;52.504;13.480;2022-10-16T04:03:10;14.80;99.90
51867;DHT22;52862;52.504;13.480;2022-10-16T04:05:37;15.00;99.90
51867;DHT22;52862;52.504;13.480;2022-10-16T04:08:04;15.10;99.90
51867;DHT22;52862;52.504;13.480;2022-10-16T04:10:31;15.20;99.90
51867;DHT22;52862;52.504;13.480;2022-10-16T04:12:58;15.10;99.90
51867;DHT22;52862;52.504;13.480;2022-10-16T04:15:25;15.00;99.90
51867;DHT22;52862;52.504;13.480;2022-10-16T04:17:53;15.10;99.90
51867;DHT22;52862;52.504;13.480;2022-10-16T04:20:20;15.10;99.90
51867;DHT22;52862;52.504;13.480;2022-10-16T04:22:46;15.00;99.90
51867;DHT22;52862;52.504;13.480;2022-10-16T04:25:13;14.70;99.90
51867;DHT22;52862;52.504;13.480;2022-10-16T04:27:40;14.70;99.90
51867;DHT22;52862;52.504;13.480;2022-10-16T04:30:11;15.20;99.90
51867;DHT22;52862;52.504;13.480;2022-10-16T04:32:39;15.00;99.90
51867;DHT22;52862;52.504;13.480;2022-10-16T04:35:06;14.80;99.90
51867;DHT22;52862;52.504;13.480;2022-10-16T04:37:33;14.90;99.90
51867;DHT22;52862;52.504;13.480;2022-10-16T04:40:00;15.00;99.90
51867;DHT22;52862;52.504;13.480;2022-10-16T04:42:26;14.80;99.90
51867;DHT22;52862;52.504;13.480;2022-10-16T04:44:56;14.80;99.90
51867;DHT22;52862;52.504;13.480;2022-10-16T04:47:25;14.80;99.90
51867;DHT22;52862;52.504;13.480;2022-10-16T04:49:52;14.80;99.90
51867;DHT22;52862;52.504;13.480;2022-10-16T04:52:19;14.80;99.90
51867;DHT22;52862;52.504;13.480;2022-10-16T04:54:47;14.60;99.90
51867;DHT22;52862;52.504;13.480;2022-10-16T04:57:16;14.80;99.90
51867;DHT22;52862;52.504;13.480;2022-10-16T04:59:42;14.60;99.90
51867;DHT22;52862;52.504;13.480;2022-10-16T05:02:10;14.50;99.90
51867;DHT22;52862;52.504;13.480;2022-10-16T05:04:37;14.50;99.90
51867;DHT22;52862;52.504;13.480;2022-10-16T05:07:04;14.50;99.90
51867;DHT22;52862;52.504;13.480;2022-10-16T05:09:30;14.90;99.90
51867;DHT22;52862;52.504;13.480;2022-10-16T05:11:57;14.80;99.90
51867;DHT22;52862;52.504;13.480;2022-10-16T05:14:23;14.30;99.90
51867;DHT22;52862;52.504;13.480;2022-10-16T05:16:50;14.20;99.90
51867;DHT22;52862;52.504;13.480;2022-10-16T05:19:18;14.60;99.90
51867;DHT22;52862;52.504;13.480;2022-10-16T05:21:54;14.00;99.90
51867;DHT22;52862;52.504;13.480;2022-10-16T05:24:20;14.40;99.90
51867;DHT22;52862;52.504;13.480;2022-10-16T05:26:47;14.30;99.90
51867;DHT22;52862;52.504;13.480;2022-10-16T05:29:14;14.20;99.90
51867;DHT22;52862;52.504;13.480;2022-10-16T05:31:41;15.10;99.90
51867;DHT22;52862;52.504;13.480;2022-10-16T05:34:07;14.50;99.90
51867;DHT22;52862;52.504;13.480;2022-10-16T05:36:35;14.20;99.90
51867;DHT22;52862;52.504;13.480;2022-10-16T05:39:02;14.20;99.90
51867;DHT22;52862;52.504;13.480;2022-10-16T05:41:29;14.30;99.90
51867;DHT22;52862;52.504;13.480;2022-10-16T05:43:55;14.50;99.90
51867;DHT22;52862;52.504;13.480;2022-10-16T05:46:22;14.50;99.90
51867;DHT22;52862;52.504;13.480;2022-10-16T05:48:51;14.50;99.90
51867;DHT22;52862;52.504;13.480;2022-10-16T05:51:18;14.60;99.90
51867;DHT22;52862;52.504;13.480;2022-10-16T05:53:46;14.40;99.90
51867;DHT22;52862;52.504;13.480;2022-10-16T05:56:12;14.40;99.90
51867;DHT22;52862;52.504;13.480;2022-10-16T05:58:39;14.50;99.90
51867;DHT22;52862;52.504;13.480;2022-10-16T06:01:09;14.40;99.90
51867;DHT22;52862;52.504;13.480;2022-10-16T06:03:36;14.70;99.90
51867;DHT22;52862;52.504;13.480;2022-10-16T06:06:08;14.60;99.90
51867;DHT22;52862;52.504;13.480;2022-10-16T06:08:38;14.50;99.90
51867;DHT22;52862;52.504;13.480;2022-10-16T06:11:07;14.70;99.90
51867;DHT22;52862;52.504;13.480;2022-10-16T06:13:34;14.50;99.90
51867;DHT22;52862;52.504;13.480;2022-10-16T06:16:01;14.80;99.90
51867;DHT22;52862;52.504;13.480;2022-10-16T06:18:28;14.70;99.90
51867;DHT22;52862;52.504;13.480;2022-10-16T06:20:55;14.60;99.90
51867;DHT22;52862;52.504;13.480;2022-10-16T06:23:23;14.80;99.90
51867;DHT22;52862;52.504;13.480;2022-10-16T06:25:49;14.80;99.90
51867;DHT22;52862;52.504;13.480;2022-10-16T06:28:17;14.90;99.90
51867;DHT22;52862;52.504;13.480;2022-10-16T06:30:44;14.80;99.90
51867;DHT22;52862;52.504;13.480;2022-10-16T06:33:12;14.80;99.90
51867;DHT22;52862;52.504;13.480;2022-10-16T06:35:38;14.90;99.90
51867;DHT22;52862;52.504;13.480;2022-10-16T06:38:05;15.10;99.90
51867;DHT22;52862;52.504;13.480;2022-10-16T06:40:31;15.30;99.90
51867;DHT22;52862;52.504;13.480;2022-10-16T06:42:58;14.70;99.90
51867;DHT22;52862;52.504;13.480;2022-10-16T06:45:25;15.00;99.90
51867;DHT22;52862;52.504;13.480;2022-10-16T06:47:52;15.10;99.90
51867;DHT22;52862;52.504;13.480;2022-10-16T06:50:18;15.20;99.90
51867;DHT22;52862;52.504;13.480;2022-10-16T06:52:45;15.20;99.90
51867;DHT22;52862;52.504;13.480;2022-10-16T06:55:12;15.20;99.90
51867;DHT22;52862;52.504;13.480;2022-10-16T06:57:38;15.10;99.90
51867;DHT22;52862;52.504;13.480;2022-10-16T07:00:06;15.10;99.90
51867;DHT22;52862;52.504;13.480;2022-10-16T07:02:34;15.20;99.90
51867;DHT22;52862;52.504;13.480;2022-10-16T07:05:00;15.20;99.90
51867;DHT22;52862;52.504;13.480;2022-10-16T07:07:27;15.40;99.90
51867;DHT22;52862;52.504;13.480;2022-10-16T07:09:54;15.40;99.90
51867;DHT22;52862;52.504;13.480;2022-10-16T07:12:20;15.70;99.90
51867;DHT22;52862;52.504;13.480;2022-10-16T07:14:47;16.00;99.90
51867;DHT22;52862;52.504;13.480;2022-10-16T07:17:13;15.90;99.90
51867;DHT22;52862;52.504;13.480;2022-10-16T07:19:41;16.50;99.90
51867;DHT22;52862;52.504;13.480;2022-10-16T07:22:07;16.20;99.90
51867;DHT22;52862;52.504;13.480;2022-10-16T07:24:34;16.60;99.90
51867;DHT22;52862;52.504;13.480;2022-10-16T07:27:01;16.70;99.90
51867;DHT22;52862;52.504;13.480;2022-10-16T07:29:27;16.60;99.90
51867;DHT22;52862;52.504;13.480;2022-10-16T07:31:54;16.60;99.90
51867;DHT22;52862;52.504;13.480;2022-10-16T07:34:20;16.60;99.90
51867;DHT22;52862;52.504;13.480;2022-10-16T07:36:49;16.80;99.90
51867;DHT22;52862;52.504;13.480;2022-10-16T07:39:16;16.70;99.90
51867;DHT22;52862;52.504;13.480;2022-10-16T07:41:42;16.80;99.90
51867;DHT22;52862;52.504;13.480;2022-10-16T07:44:09;16.80;99.90
51867;DHT22;52862;52.504;13.480;2022-10-16T07:46:35;16.90;99.90
51867;DHT22;52862;52.504;13.480;2022-10-16T07:49:02;17.00;99.90
51867;DHT22;52862;52.504;13.480;2022-10-16T07:51:29;16.90;99.90
51867;DHT22;52862;52.504;13.480;2022-10-16T07:53:56;16.90;99.90
51867;DHT22;52862;52.504;13.480;2022-10-16T07:56:23;16.90;99.90
51867;DHT22;52862;52.504;13.480;2022-10-16T07:58:50;16.90;99.90
51867;DHT22;52862;52.504;13.480;2022-10-16T08:01:18;17.00;99.90
51867;DHT22;52862;52.504;13.480;2022-10-16T08:03:47;17.00;99.90
51867;DHT22;52862;52.504;13.480;2022-10-16T08:06:14;17.00;99.90
51867;DHT22;52862;52.504;13.480;2022-10-16T08:08:41;17.10;99.90
51867;DHT22;52862;52.504;13.480;2022-10-16T08:11:08;17.10;99.90
51867;DHT22;52862;52.504;13.480;2022-10-16T08:13:35;17.30;99.90
51867;DHT22;52862;52.504;13.480;2022-10-16T08:16:02;17.30;99.90
51867;DHT22;52862;52.504;13.480;2022-10-16T08:18:34;17.40;99.90
51867;DHT22;52862;52.504;13.480;2022-10-16T08:21:02;17.30;99.90
51867;DHT22;52862;52.504;13.480;2022-10-16T08:23:29;17.30;99.90
51867;DHT22;52862;52.504;13.480;2022-10-16T08:25:56;17.30;99.90
51867;DHT22;52862;52.504;13.480;2022-10-16T08:28:28;17.30;99.90
51867;DHT22;52862;52.504;13.480;2022-10-16T08:30:55;17.60;99.90
51867;DHT22;52862;52.504;13.480;2022-10-16T08:33:22;17.40;99.90
51867;DHT22;52862;52.504;13.480;2022-10-16T08:35:52;17.30;99.90
51867;DHT22;52862;52.504;13.480;2022-10-16T08:38:19;17.50;99.90
51867;DHT22;52862;52.504;13.480;2022-10-16T08:40:46;17.40;99.90
51867;DHT22;52862;52.504;13.480;2022-10-16T08:43:31;17.50;99.90
51867;DHT22;52862;52.504;13.480;2022-10-16T08:46:13;17.60;99.90
51867;DHT22;52862;52.504;13.480;2022-10-16T08:48:46;17.50;99.90
51867;DHT22;52862;52.504;13.480;2022-10-16T08:51:19;17.30;99.90
51867;DHT22;52862;52.504;13.480;2022-10-16T08:53:50;17.60;99.90
51867;DHT22;52862;52.504;13.480;2022-10-16T08:56:17;17.60;99.90
51867;DHT22;52862;52.504;13.480;2022-10-16T08:58:46;17.60;99.90
51867;DHT22;52862;52.504;13.480;2022-10-16T09:01:19;17.50;99.90
51867;DHT22;52862;52.504;13.480;2022-10-16T09:04:09;17.40;99.90
51867;DHT22;52862;52.504;13.480;2022-10-16T09:06:46;17.40;99.90
51867;DHT22;52862;52.504;13.480;2022-10-16T09:09:44;17.60;99.90
51867;DHT22;52862;52.504;13.480;2022-10-16T09:12:18;17.60;99.90
51867;DHT22;52862;52.504;13.480;2022-10-16T09:15:13;18.00;99.90
51867;DHT22;52862;52.504;13.480;2022-10-16T09:17:48;18.30;99.90
51867;DHT22;52862;52.504;13.480;2022-10-16T09:20:22;18.50;99.90
51867;DHT22;52862;52.504;13.480;2022-10-16T09:22:57;18.30;99.90
51867;DHT22;52862;52.504;13.480;2022-10-16T09:25:27;18.40;99.90
51867;DHT22;52862;52.504;13.480;2022-10-16T09:27:54;18.40;99.90
51867;DHT22;52862;52.504;13.480;2022-10-16T09:30:22;18.50;99.90
51867;DHT22;52862;52.504;13.480;2022-10-16T09:32:53;18.10;99.90
51867;DHT22;52862;52.504;13.480;2022-10-16T09:35:22;18.30;99.90
51867;DHT22;52862;52.504;13.480;2022-10-16T09:37:52;18.40;99.90
51867;DHT22;52862;52.504;13.480;2022-10-16T09:40:29;18.60;99.90
51867;DHT22;52862;52.504;13.480;2022-10-16T09:43:02;18.30;99.90
51867;DHT22;52862;52.504;13.480;2022-10-16T09:45:30;18.60;99.90
51867;DHT22;52862;52.504;13.480;2022-10-16T09:47:57;18.70;99.90
51867;DHT22;52862;52.504;13.480;2022-10-16T09:50:26;18.50;99.90
51867;DHT22;52862;52.504;13.480;2022-10-16T09:53:08;18.60;99.90
51867;DHT22;52862;52.504;13.480;2022-10-16T09:55:48;18.90;99.90
51867;DHT22;52862;52.504;13.480;2022-10-16T09:58:14;18.80;99.90
51867;DHT22;52862;52.504;13.480;2022-10-16T10:00:48;18.30;99.90
51867;DHT22;52862;52.504;13.480;2022-10-16T10:03:34;18.40;99.90
51867;DHT22;52862;52.504;13.480;2022-10-16T10:06:14;18.40;99.90
51867;DHT22;52862;52.504;13.480;2022-10-16T10:08:53;18.40;99.90
51867;DHT22;52862;52.504;13.480;2022-10-16T10:11:38;18.90;99.90
51867;DHT22;52862;52.504;13.480;2022-10-16T10:14:06;19.10;99.90
51867;DHT22;52862;52.504;13.480;2022-10-16T10:16:37;19.20;99.90
51867;DHT22;52862;52.504;13.480;2022-10-16T10:19:15;18.50;99.90
51867;DHT22;52862;52.504;13.480;2022-10-16T10:21:44;19.60;99.90
51867;DHT22;52862;52.504;13.480;2022-10-16T10:24:12;19.50;99.90
51867;DHT22;52862;52.504;13.480;2022-10-16T10:26:44;19.20;99.90
51867;DHT22;52862;52.504;13.480;2022-10-16T10:29:20;19.30;99.90
51867;DHT22;52862;52.504;13.480;2022-10-16T10:32:00;19.20;99.90
51867;DHT22;52862;52.504;13.480;2022-10-16T10:38:27;19.30;99.90
51867;DHT22;52862;52.504;13.480;2022-10-16T10:41:07;19.40;99.90
51867;DHT22;52862;52.504;13.480;2022-10-16T10:43:48;18.90;99.90
51867;DHT22;52862;52.504;13.480;2022-10-16T10:46:25;19.60;99.90
51867;DHT22;52862;52.504;13.480;2022-10-16T10:49:09;20.30;99.90
51867;DHT22;52862;52.504;13.480;2022-10-16T10:51:49;19.50;99.90
51867;DHT22;52862;52.504;13.480;2022-10-16T10:54:24;19.90;99.90
51867;DHT22;52862;52.504;13.480;2022-10-16T10:56:58;20.00;99.90
51867;DHT22;52862;52.504;13.480;2022-10-16T10:59:43;19.60;99.90
51867;DHT22;52862;52.504;13.480;2022-10-16T11:02:18;19.60;99.90
51867;DHT22;52862;52.504;13.480;2022-10-16T11:07:57;19.70;99.90
51867;DHT22;52862;52.504;13.480;2022-10-16T11:10:27;20.10;99.90
51867;DHT22;52862;52.504;13.480;2022-10-16T11:13:10;20.10;99.90
51867;DHT22;52862;52.504;13.480;2022-10-16T11:15:43;20.80;99.90
51867;DHT22;52862;52.504;13.480;2022-10-16T11:18:16;20.00;99.90
51867;DHT22;52862;52.504;13.480;2022-10-16T11:20:49;20.60;99.90
51867;DHT22;52862;52.504;13.480;2022-10-16T11:23:23;20.50;99.90
51867;DHT22;52862;52.504;13.480;2022-10-16T11:25:53;20.60;99.90
51867;DHT22;52862;52.504;13.480;2022-10-16T11:28:26;20.70;99.90
51867;DHT22;52862;52.504;13.480;2022-10-16T11:31:00;20.00;99.90
51867;DHT22;52862;52.504;13.480;2022-10-16T11:33:34;20.50;99.90
51867;DHT22;52862;52.504;13.480;2022-10-16T11:36:08;19.90;99.90
51867;DHT22;52862;52.504;13.480;2022-10-16T11:38:47;22.30;99.90
51867;DHT22;52862;52.504;13.480;2022-10-16T11:41:21;19.90;99.90
51867;DHT22;52862;52.504;13.480;2022-10-16T11:43:53;20.20;99.90
51867;DHT22;52862;52.504;13.480;2022-10-16T11:46:25;19.40;99.90
51867;DHT22;52862;52.504;13.480;2022-10-16T11:49:00;20.30;99.90
51867;DHT22;52862;52.504;13.480;2022-10-16T11:51:33;20.10;99.90
51867;DHT22;52862;52.504;13.480;2022-10-16T11:54:08;20.40;99.90
51867;DHT22;52862;52.504;13.480;2022-10-16T11:56:41;20.70;99.90
51867;DHT22;52862;52.504;13.480;2022-10-16T11:59:18;20.50;99.90
51867;DHT22;52862;52.504;13.480;2022-10-16T12:01:48;20.40;99.90
51867;DHT22;52862;52.504;13.480;2022-10-16T12:04:22;20.20;99.90
51867;DHT22;52862;52.504;13.480;2022-10-16T12:06:54;19.70;99.90
51867;DHT22;52862;52.504;13.480;2022-10-16T12:09:26;20.30;99.90
51867;DHT22;52862;52.504;13.480;2022-10-16T12:11:53;20.00;99.90
51867;DHT22;52862;52.504;13.480;2022-10-16T12:14:36;20.30;99.90
51867;DHT22;52862;52.504;13.480;2022-10-16T12:17:26;20.30;99.90
51867;DHT22;52862;52.504;13.480;2022-10-16T12:20:00;20.10;99.90
51867;DHT22;52862;52.504;13.480;2022-10-16T12:22:29;20.00;99.90
51867;DHT22;52862;52.504;13.480;2022-10-16T12:24:57;20.40;99.90
51867;DHT22;52862;52.504;13.480;2022-10-16T12:27:28;21.20;99.90
51867;DHT22;52862;52.504;13.480;2022-10-16T12:29:57;22.80;99.90
51867;DHT22;52862;52.504;13.480;2022-10-16T12:32:29;27.20;99.90
51867;DHT22;52862;52.504;13.480;2022-10-16T12:35:19;30.10;96.10
51867;DHT22;52862;52.504;13.480;2022-10-16T12:37:47;31.40;90.10
51867;DHT22;52862;52.504;13.480;2022-10-16T12:40:16;32.30;87.70
51867;DHT22;52862;52.504;13.480;2022-10-16T12:42:50;33.30;78.90
51867;DHT22;52862;52.504;13.480;2022-10-16T12:45:26;32.60;77.00
51867;DHT22;52862;52.504;13.480;2022-10-16T12:47:54;32.40;78.20
51867;DHT22;52862;52.504;13.480;2022-10-16T12:50:31;33.40;75.40
51867;DHT22;52862;52.504;13.480;2022-10-16T12:52:59;34.20;71.50
51867;DHT22;52862;52.504;13.480;2022-10-16T12:55:27;30.70;76.00
51867;DHT22;52862;52.504;13.480;2022-10-16T12:58:09;31.20;75.60
51867;DHT22;52862;52.504;13.480;2022-10-16T13:00:44;31.90;73.40
51867;DHT22;52862;52.504;13.480;2022-10-16T13:03:33;32.80;69.40
51867;DHT22;52862;52.504;13.480;2022-10-16T13:06:15;32.40;69.20
51867;DHT22;52862;52.504;13.480;2022-10-16T13:08:58;32.00;70.90
51867;DHT22;52862;52.504;13.480;2022-10-16T13:11:49;32.70;68.80
51867;DHT22;52862;52.504;13.480;2022-10-16T13:17:24;32.50;69.60
51867;DHT22;52862;52.504;13.480;2022-10-16T13:20:00;32.70;68.10
51867;DHT22;52862;52.504;13.480;2022-10-16T13:22:33;33.30;67.20
51867;DHT22;52862;52.504;13.480;2022-10-16T13:25:16;34.30;64.60
51867;DHT22;52862;52.504;13.480;2022-10-16T13:27:48;33.20;64.70
51867;DHT22;52862;52.504;13.480;2022-10-16T13:30:19;31.00;69.10
51867;DHT22;52862;52.504;13.480;2022-10-16T13:32:48;31.20;68.40
51867;DHT22;52862;52.504;13.480;2022-10-16T13:35:21;31.00;69.70
51867;DHT22;52862;52.504;13.480;2022-10-16T13:37:47;31.20;69.70
51867;DHT22;52862;52.504;13.480;2022-10-16T13:40:20;28.70;75.40
51867;DHT22;52862;52.504;13.480;2022-10-16T13:42:48;27.20;79.60
51867;DHT22;52862;52.504;13.480;2022-10-16T13:45:19;29.40;75.70
51867;DHT22;52862;52.504;13.480;2022-10-16T13:47:45;30.80;72.50
51867;DHT22;52862;52.504;13.480;2022-10-16T13:50:14;30.90;71.40
51867;DHT22;52862;52.504;13.480;2022-10-16T13:52:41;31.30;69.60
51867;DHT22;52862;52.504;13.480;2022-10-16T13:55:11;30.70;70.70
51867;DHT22;52862;52.504;13.480;2022-10-16T13:57:38;30.40;72.00
51867;DHT22;52862;52.504;13.480;2022-10-16T14:00:18;28.90;74.10
51867;DHT22;52862;52.504;13.480;2022-10-16T14:02:45;28.90;74.80
51867;DHT22;52862;52.504;13.480;2022-10-16T14:05:20;28.00;78.00
51867;DHT22;52862;52.504;13.480;2022-10-16T14:07:49;26.70;80.60
51867;DHT22;52862;52.504;13.480;2022-10-16T14:10:22;24.70;86.80
51867;DHT22;52862;52.504;13.480;2022-10-16T14:12:55;24.90;85.40
51867;DHT22;52862;52.504;13.480;2022-10-16T14:15:23;25.70;85.40
51867;DHT22;52862;52.504;13.480;2022-10-16T14:17:51;23.70;89.20
51867;DHT22;52862;52.504;13.480;2022-10-16T14:20:20;22.70;92.20
51867;DHT22;52862;52.504;13.480;2022-10-16T14:22:58;21.90;94.10
51867;DHT22;52862;52.504;13.480;2022-10-16T14:25:27;21.30;95.50
51867;DHT22;52862;52.504;13.480;2022-10-16T14:27:59;20.90;96.30
51867;DHT22;52862;52.504;13.480;2022-10-16T14:30:33;20.90;97.00
51867;DHT22;52862;52.504;13.480;2022-10-16T14:33:02;20.70;97.50
51867;DHT22;52862;52.504;13.480;2022-10-16T14:35:31;20.80;98.20
51867;DHT22;52862;52.504;13.480;2022-10-16T14:37:59;20.60;98.50
51867;DHT22;52862;52.504;13.480;2022-10-16T14:40:28;21.20;99.10
51867;DHT22;52862;52.504;13.480;2022-10-16T14:42:55;20.50;99.30
51867;DHT22;52862;52.504;13.480;2022-10-16T14:45:24;20.30;99.50
51867;DHT22;52862;52.504;13.480;2022-10-16T14:47:53;20.80;99.90
51867;DHT22;52862;52.504;13.480;2022-10-16T14:50:21;20.30;99.90
51867;DHT22;52862;52.504;13.480;2022-10-16T14:52:49;19.80;99.90
51867;DHT22;52862;52.504;13.480;2022-10-16T14:55:16;20.30;99.90
51867;DHT22;52862;52.504;13.480;2022-10-16T14:57:43;20.10;99.90
51867;DHT22;52862;52.504;13.480;2022-10-16T15:00:18;20.20;99.90
51867;DHT22;52862;52.504;13.480;2022-10-16T15:02:51;20.10;99.90
51867;DHT22;52862;52.504;13.480;2022-10-16T15:05:19;20.50;99.90
51867;DHT22;52862;52.504;13.480;2022-10-16T15:07:46;20.30;99.90
51867;DHT22;52862;52.504;13.480;2022-10-16T15:10:13;20.00;99.90
51867;DHT22;52862;52.504;13.480;2022-10-16T15:12:40;20.00;99.90
51867;DHT22;52862;52.504;13.480;2022-10-16T15:15:30;19.90;99.90
51867;DHT22;52862;52.504;13.480;2022-10-16T15:18:03;19.80;99.90
51867;DHT22;52862;52.504;13.480;2022-10-16T15:20:31;22.40;99.90
51867;DHT22;52862;52.504;13.480;2022-10-16T15:23:00;20.40;99.90
51867;DHT22;52862;52.504;13.480;2022-10-16T15:25:36;19.70;99.90
51867;DHT22;52862;52.504;13.480;2022-10-16T15:28:05;19.80;99.90
51867;DHT22;52862;52.504;13.480;2022-10-16T15:30:32;19.70;99.90
51867;DHT22;52862;52.504;13.480;2022-10-16T15:33:00;19.70;99.90
51867;DHT22;52862;52.504;13.480;2022-10-16T15:35:27;19.40;99.90
51867;DHT22;52862;52.504;13.480;2022-10-16T15:37:53;19.50;99.90
51867;DHT22;52862;52.504;13.480;2022-10-16T15:40:21;19.60;99.90
51867;DHT22;52862;52.504;13.480;2022-10-16T15:42:49;19.70;99.90
51867;DHT22;52862;52.504;13.480;2022-10-16T15:45:16;18.80;99.90